Time;durP1;ratioP1;P1;durP2;ratioP2;P2;SDS_P1;SDS_P2;PMS_P1;PMS_P2;Temp;Humidity;BMP_temperature;BMP_pressure;BME280_temperature;BME280_humidity;BME280_pressure;Samples;Min_cycle;Max_cycle;Signal;HPM_P1;HPM_P2
2023/01/22 00:02:08;;;;;;;3.20;3.03;;;2.70;89.90;;;;;;5020564;28;20299;-76
2023/01/22 00:04:36;;;;;;;3.15;3.05;;;2.70;89.70;;;;;;5023913;28;20247;-75
2023/01/22 00:07:03;;;;;;;3.42;3.22;;;2.60;89.90;;;;;;5020118;28;20338;-75
2023/01/22 00:09:32;;;;;;;3.35;3.15;;;2.60;89.50;;;;;;5022156;28;20231;-76
2023/01/22 00:11:59;;;;;;;2.60;2.50;;;2.60;90.30;;;;;;5028401;28;20277;-76
2023/01/22 00:14:26;;;;;;;2.95;2.85;;;2.60;89.70;;;;;;5026025;28;20227;-76
2023/01/22 00:16:53;;;;;;;3.20;3.10;;;2.60;90.30;;;;;;5026528;28;20363;-76
2023/01/22 00:19:20;;;;;;;3.55;3.35;;;2.70;90.00;;;;;;5025477;28;20283;-75
2023/01/22 00:21:47;;;;;;;3.30;3.20;;;2.70;89.50;;;;;;5025757;28;20662;-75
2023/01/22 00:24:15;;;;;;;3.25;3.15;;;2.70;89.40;;;;;;5007564;28;20286;-76
2023/01/22 00:26:44;;;;;;;3.30;3.15;;;2.70;89.70;;;;;;5025209;28;20760;-75
2023/01/22 00:29:11;;;;;;;3.25;3.15;;;2.70;89.20;;;;;;5025493;28;20195;-76
2023/01/22 00:31:38;;;;;;;3.25;3.08;;;2.70;89.10;;;;;;5024761;28;20958;-76
2023/01/22 00:34:06;;;;;;;3.67;3.47;;;2.70;89.00;;;;;;5025223;28;20287;-76
2023/01/22 00:36:32;;;;;;;3.15;3.05;;;2.80;89.10;;;;;;5023679;28;20693;-76
2023/01/22 00:39:00;;;;;;;3.60;3.40;;;2.80;88.90;;;;;;5026886;28;20610;-74
2023/01/22 00:41:28;;;;;;;3.05;2.90;;;2.80;88.90;;;;;;5025131;28;20231;-72
2023/01/22 00:43:56;;;;;;;3.58;3.38;;;2.80;89.90;;;;;;5023377;28;20295;-74
2023/01/22 00:46:24;;;;;;;3.20;3.10;;;2.80;89.20;;;;;;5024895;28;20235;-76
2023/01/22 00:48:52;;;;;;;3.90;3.70;;;2.80;89.10;;;;;;5023583;28;20956;-76
2023/01/22 00:51:19;;;;;;;3.58;3.38;;;2.80;89.70;;;;;;5025746;28;20224;-75
2023/01/22 00:53:46;;;;;;;3.13;3.03;;;2.80;90.00;;;;;;4993654;28;20627;-76
2023/01/22 00:56:14;;;;;;;3.03;2.83;;;2.80;89.80;;;;;;5006992;28;20302;-76
2023/01/22 00:58:42;;;;;;;3.03;2.92;;;2.80;89.60;;;;;;5025901;28;20265;-75
2023/01/22 01:01:14;;;;;;;3.20;3.10;;;2.80;89.80;;;;;;5008671;28;20336;-77
2023/01/22 01:03:42;;;;;;;3.38;3.25;;;2.80;89.80;;;;;;5022630;28;20200;-76
2023/01/22 01:06:13;;;;;;;2.95;2.85;;;2.80;88.70;;;;;;5021090;28;20315;-75
2023/01/22 01:08:42;;;;;;;3.25;3.13;;;2.80;89.20;;;;;;5027755;28;20227;-76
2023/01/22 01:11:12;;;;;;;3.50;3.30;;;2.90;90.10;;;;;;5025392;28;20319;-76
2023/01/22 01:13:41;;;;;;;3.88;3.67;;;2.80;90.00;;;;;;5028398;28;20277;-76
2023/01/22 01:16:14;;;;;;;3.63;3.42;;;2.80;90.00;;;;;;5024182;28;20275;-76
2023/01/22 01:18:41;;;;;;;2.80;2.70;;;2.80;89.50;;;;;;5028665;28;20202;-75
2023/01/22 01:21:10;;;;;;;3.13;3.03;;;2.80;90.00;;;;;;5027262;28;20310;-76
2023/01/22 01:23:38;;;;;;;3.35;3.15;;;2.90;88.90;;;;;;5029022;28;20219;-75
2023/01/22 01:26:06;;;;;;;3.42;3.22;;;2.90;90.30;;;;;;5020475;28;20315;-75
2023/01/22 01:28:35;;;;;;;3.28;3.17;;;2.90;89.60;;;;;;5008881;28;20661;-76
2023/01/22 01:31:04;;;;;;;3.28;3.08;;;2.90;89.40;;;;;;5009573;28;20219;-75
2023/01/22 01:33:32;;;;;;;3.40;3.20;;;2.90;89.70;;;;;;5026386;28;20200;-75
2023/01/22 01:36:01;;;;;;;3.58;3.38;;;2.90;89.80;;;;;;5024526;28;20215;-73
2023/01/22 01:38:28;;;;;;;3.10;3.00;;;2.90;89.20;;;;;;5025918;28;20305;-75
2023/01/22 01:40:55;;;;;;;3.55;3.20;;;2.90;89.60;;;;;;5025781;28;20302;-74
2023/01/22 01:43:23;;;;;;;3.40;3.20;;;3.00;90.00;;;;;;5025401;28;20258;-75
2023/01/22 01:45:50;;;;;;;3.85;3.65;;;3.00;89.70;;;;;;5026633;28;20223;-75
2023/01/22 01:48:37;;;;;;;3.58;3.28;;;3.00;89.70;;;;;;5006511;28;20273;-76
2023/01/22 01:51:09;;;;;;;3.47;3.28;;;3.00;89.70;;;;;;5026393;28;20251;-76
2023/01/22 01:53:37;;;;;;;3.17;2.97;;;3.00;90.70;;;;;;5024826;28;20287;-76
2023/01/22 01:56:10;;;;;;;3.75;3.55;;;2.90;90.10;;;;;;5004051;28;20271;-76
2023/01/22 01:58:39;;;;;;;3.53;3.33;;;2.90;90.20;;;;;;5021506;28;20290;-76
2023/01/22 02:01:13;;;;;;;3.67;3.40;;;2.90;90.00;;;;;;5023077;28;20763;-75
2023/01/22 02:03:43;;;;;;;3.50;3.30;;;3.00;89.90;;;;;;5026162;28;20301;-76
2023/01/22 02:06:12;;;;;;;3.15;3.05;;;2.90;90.10;;;;;;5024803;28;20318;-76
2023/01/22 02:08:40;;;;;;;3.22;3.08;;;3.00;90.70;;;;;;5027475;28;20899;-75
2023/01/22 02:11:08;;;;;;;2.88;2.78;;;2.90;90.80;;;;;;5009018;28;20306;-76
2023/01/22 02:13:37;;;;;;;3.38;3.28;;;2.90;90.60;;;;;;5007495;28;20211;-75
2023/01/22 02:16:06;;;;;;;3.17;3.05;;;2.90;90.60;;;;;;5026017;28;20306;-75
2023/01/22 02:18:34;;;;;;;3.05;2.95;;;2.90;90.70;;;;;;5020942;28;20659;-75
2023/01/22 02:21:03;;;;;;;3.40;3.20;;;2.90;90.10;;;;;;5025146;28;20390;-75
2023/01/22 02:23:32;;;;;;;2.90;2.80;;;2.90;90.40;;;;;;5024472;28;20303;-75
2023/01/22 02:26:00;;;;;;;3.38;3.20;;;2.90;90.40;;;;;;5023879;28;20239;-75
2023/01/22 02:28:27;;;;;;;3.15;3.05;;;2.90;90.80;;;;;;5025941;28;20284;-75
2023/01/22 02:30:54;;;;;;;3.38;3.25;;;2.80;91.30;;;;;;5026594;28;20227;-75
2023/01/22 02:33:21;;;;;;;3.10;3.00;;;2.80;91.80;;;;;;5027188;28;20269;-75
2023/01/22 02:35:48;;;;;;;3.13;3.03;;;2.80;91.00;;;;;;5005710;28;20385;-75
2023/01/22 02:38:17;;;;;;;3.03;2.92;;;2.80;91.60;;;;;;5024267;28;20235;-77
2023/01/22 02:40:48;;;;;;;2.70;2.60;;;2.80;91.60;;;;;;5022062;28;20235;-77
2023/01/22 02:43:16;;;;;;;3.03;2.92;;;2.80;91.30;;;;;;5028942;28;20215;-76
2023/01/22 02:45:43;;;;;;;2.97;2.88;;;2.80;91.10;;;;;;5027473;28;20241;-76
2023/01/22 02:48:11;;;;;;;2.75;2.65;;;2.80;91.00;;;;;;5029972;28;20610;-77
2023/01/22 02:50:38;;;;;;;3.20;3.10;;;2.90;91.30;;;;;;5026497;28;20782;-76
2023/01/22 02:53:05;;;;;;;3.00;2.90;;;2.90;91.00;;;;;;5029469;28;20196;-76
2023/01/22 02:55:33;;;;;;;3.17;3.08;;;2.90;91.40;;;;;;5009264;28;20251;-76
2023/01/22 02:58:01;;;;;;;2.90;2.80;;;2.90;91.40;;;;;;5011952;28;20693;-76
2023/01/22 03:00:28;;;;;;;3.00;2.90;;;2.90;91.00;;;;;;5029720;28;20219;-76
2023/01/22 03:02:55;;;;;;;3.25;3.15;;;2.90;91.00;;;;;;5012774;28;20696;-76
2023/01/22 03:05:22;;;;;;;3.20;3.10;;;2.90;90.80;;;;;;5027463;28;20247;-77
2023/01/22 03:07:50;;;;;;;3.30;3.20;;;3.00;90.70;;;;;;5029104;28;20308;-76
2023/01/22 03:10:20;;;;;;;3.33;3.22;;;3.00;90.50;;;;;;5030001;28;20227;-75
2023/01/22 03:21:28;;;;;;;3.08;2.97;;;3.10;90.40;;;;;;5032180;28;20225;-75
2023/01/22 03:23:56;;;;;;;3.58;3.38;;;3.10;90.30;;;;;;5028053;28;20314;-76
2023/01/22 03:26:23;;;;;;;3.20;3.10;;;3.10;90.40;;;;;;5029963;28;20243;-77
2023/01/22 03:28:54;;;;;;;3.08;2.97;;;3.10;90.40;;;;;;5029592;28;20188;-77
2023/01/22 03:31:21;;;;;;;3.28;3.17;;;3.10;90.30;;;;;;5030837;28;20726;-77
2023/01/22 03:33:48;;;;;;;3.03;2.92;;;3.10;90.20;;;;;;5012463;28;20278;-77
2023/01/22 03:36:15;;;;;;;3.30;3.10;;;3.10;90.20;;;;;;5028358;28;20303;-76
2023/01/22 03:38:44;;;;;;;3.20;3.00;;;3.10;90.30;;;;;;5024958;28;20293;-77
2023/01/22 03:41:13;;;;;;;2.55;2.45;;;3.10;90.30;;;;;;5026640;28;20220;-76
2023/01/22 03:43:41;;;;;;;3.15;3.05;;;3.10;90.20;;;;;;5033331;28;20780;-75
2023/01/22 03:46:13;;;;;;;3.53;3.33;;;3.10;90.20;;;;;;5027779;28;20716;-75
2023/01/22 03:48:41;;;;;;;2.50;2.40;;;3.10;90.00;;;;;;5027469;28;20278;-76
2023/01/22 03:51:09;;;;;;;3.10;2.90;;;3.10;90.10;;;;;;5028585;28;20298;-76
2023/01/22 03:53:37;;;;;;;3.22;3.05;;;3.10;89.80;;;;;;5028272;28;20299;-77
2023/01/22 03:56:06;;;;;;;3.30;3.20;;;3.10;90.00;;;;;;5028174;28;20330;-77
2023/01/22 03:58:34;;;;;;;2.95;2.85;;;3.10;89.80;;;;;;5027278;28;20298;-76
2023/01/22 04:01:03;;;;;;;3.60;3.40;;;3.10;89.90;;;;;;5011232;28;20215;-76
2023/01/22 04:03:32;;;;;;;3.15;3.05;;;3.20;89.50;;;;;;5027577;28;20227;-75
2023/01/22 04:06:00;;;;;;;3.10;3.00;;;3.10;89.70;;;;;;5028965;28;20222;-74
2023/01/22 04:08:28;;;;;;;3.15;3.05;;;3.10;89.60;;;;;;5026781;28;20202;-75
2023/01/22 04:10:56;;;;;;;2.90;2.80;;;3.10;89.80;;;;;;5012372;28;20303;-75
2023/01/22 04:13:24;;;;;;;3.10;3.00;;;3.00;90.20;;;;;;5028788;28;20295;-75
2023/01/22 04:15:52;;;;;;;3.20;3.00;;;2.90;90.50;;;;;;5011151;28;20294;-75
2023/01/22 04:18:20;;;;;;;2.85;2.75;;;2.80;90.70;;;;;;5026860;28;20317;-75
2023/01/22 04:20:50;;;;;;;3.08;2.92;;;2.70;90.80;;;;;;5010181;28;20310;-75
2023/01/22 04:23:18;;;;;;;3.28;3.17;;;2.70;91.00;;;;;;4992068;28;20219;-76
2023/01/22 04:25:46;;;;;;;3.63;3.42;;;2.60;91.30;;;;;;5026186;28;20223;-76
2023/01/22 04:28:14;;;;;;;2.83;2.72;;;2.60;91.00;;;;;;5013051;28;20195;-76
2023/01/22 04:30:42;;;;;;;3.15;3.05;;;2.60;91.10;;;;;;5027417;28;20226;-76
2023/01/22 04:33:10;;;;;;;2.97;2.88;;;2.70;90.70;;;;;;5026685;28;20215;-73
2023/01/22 04:35:38;;;;;;;2.80;2.70;;;2.70;90.90;;;;;;5026881;28;20307;-76
2023/01/22 04:38:09;;;;;;;3.05;2.95;;;2.70;90.50;;;;;;5010212;28;20251;-76
2023/01/22 04:40:37;;;;;;;3.13;3.03;;;2.70;90.70;;;;;;5028385;28;20247;-76
2023/01/22 04:43:05;;;;;;;2.83;2.72;;;2.70;90.90;;;;;;5025550;28;20293;-76
2023/01/22 04:45:32;;;;;;;3.45;3.35;;;2.70;91.30;;;;;;5026579;28;20243;-75
2023/01/22 04:48:00;;;;;;;2.90;2.80;;;2.70;91.00;;;;;;5026671;28;20309;-75
2023/01/22 04:50:29;;;;;;;2.65;2.55;;;2.60;91.30;;;;;;5025353;28;20247;-76
2023/01/22 04:52:57;;;;;;;3.25;3.10;;;2.60;91.50;;;;;;5025244;28;20223;-76
2023/01/22 04:55:27;;;;;;;3.15;3.05;;;2.60;91.20;;;;;;5007302;28;20302;-76
2023/01/22 04:57:55;;;;;;;3.03;2.92;;;2.60;91.20;;;;;;5023499;28;22130;-75
2023/01/22 05:00:23;;;;;;;3.30;3.20;;;2.60;91.30;;;;;;5024936;28;20225;-76
2023/01/22 05:02:50;;;;;;;2.92;2.83;;;2.50;91.60;;;;;;4995070;28;20219;-76
2023/01/22 05:05:18;;;;;;;3.10;3.00;;;2.30;92.20;;;;;;5025464;28;20305;-76
2023/01/22 05:07:45;;;;;;;3.55;3.35;;;2.20;92.50;;;;;;5023624;28;20657;-76
2023/01/22 05:10:12;;;;;;;3.92;3.72;;;2.20;92.80;;;;;;5023236;28;20765;-75
2023/01/22 05:12:40;;;;;;;3.40;3.20;;;2.10;92.60;;;;;;5029435;28;20241;-75
2023/01/22 05:15:08;;;;;;;3.25;3.13;;;2.10;92.60;;;;;;5024754;28;20301;-75
2023/01/22 05:17:36;;;;;;;3.35;3.15;;;2.10;92.80;;;;;;5010994;28;20219;-77
2023/01/22 05:20:03;;;;;;;3.50;3.30;;;2.00;93.10;;;;;;5023798;28;20294;-77
2023/01/22 05:22:30;;;;;;;3.50;3.40;;;2.00;93.30;;;;;;5008917;28;20231;-76
2023/01/22 05:24:57;;;;;;;4.13;3.83;;;2.00;93.30;;;;;;5028082;28;20304;-76
2023/01/22 05:27:24;;;;;;;3.53;3.33;;;2.00;93.10;;;;;;5027246;28;20262;-76
2023/01/22 05:29:52;;;;;;;3.67;3.47;;;2.10;92.60;;;;;;5024473;28;20277;-77
2023/01/22 05:32:19;;;;;;;3.50;3.30;;;2.10;92.60;;;;;;5007342;28;20542;-77
2023/01/22 05:34:46;;;;;;;3.50;3.30;;;2.10;92.50;;;;;;5011138;28;20250;-76
2023/01/22 05:37:13;;;;;;;3.42;3.28;;;2.20;92.60;;;;;;5026549;28;20223;-75
2023/01/22 05:39:41;;;;;;;3.22;3.13;;;2.10;92.70;;;;;;5027469;28;20219;-75
2023/01/22 05:42:08;;;;;;;3.35;3.20;;;2.10;92.80;;;;;;5027328;28;20282;-76
2023/01/22 05:44:35;;;;;;;3.60;3.40;;;2.00;92.80;;;;;;5027838;28;20311;-75
2023/01/22 05:47:04;;;;;;;3.58;3.38;;;2.00;93.00;;;;;;5025373;28;20382;-75
2023/01/22 05:49:31;;;;;;;4.45;4.15;;;2.00;92.70;;;;;;5030113;28;20915;-74
2023/01/22 05:51:58;;;;;;;4.47;4.18;;;2.00;92.70;;;;;;5025914;28;20228;-75
2023/01/22 05:54:25;;;;;;;4.88;4.40;;;2.10;92.70;;;;;;5025191;28;20188;-76
2023/01/22 05:56:52;;;;;;;5.43;4.93;;;2.10;92.70;;;;;;5024719;28;20247;-76
2023/01/22 05:59:19;;;;;;;5.60;5.10;;;2.10;92.70;;;;;;5009429;28;20219;-76
2023/01/22 06:01:45;;;;;;;4.68;4.28;;;2.10;92.80;;;;;;5028032;28;20282;-76
2023/01/22 06:04:14;;;;;;;4.80;4.43;;;2.10;92.70;;;;;;5024664;28;20310;-75
2023/01/22 06:06:41;;;;;;;5.25;4.85;;;2.10;93.00;;;;;;5026288;28;20264;-76
2023/01/22 06:09:08;;;;;;;4.03;3.72;;;2.10;93.40;;;;;;5009127;28;20641;-76
2023/01/22 06:11:35;;;;;;;4.40;3.42;;;2.10;93.20;;;;;;5023657;28;20270;-76
2023/01/22 06:14:02;;;;;;;3.17;2.97;;;2.10;93.30;;;;;;5024940;28;20199;-76
2023/01/22 06:16:30;;;;;;;4.05;3.75;;;2.10;92.90;;;;;;5021983;28;20319;-76
2023/01/22 06:18:57;;;;;;;3.53;3.33;;;2.20;92.50;;;;;;5023501;28;20291;-75
2023/01/22 06:21:25;;;;;;;3.47;3.25;;;2.20;93.30;;;;;;5008508;28;20592;-75
2023/01/22 06:23:52;;;;;;;3.25;3.08;;;2.20;93.20;;;;;;5027746;28;20247;-75
2023/01/22 06:26:20;;;;;;;3.47;3.28;;;2.10;93.80;;;;;;5026661;28;20310;-75
2023/01/22 06:28:47;;;;;;;3.67;3.47;;;2.20;93.20;;;;;;5028664;28;20223;-75
2023/01/22 06:31:14;;;;;;;3.45;3.25;;;2.20;92.90;;;;;;5028870;28;20350;-75
2023/01/22 06:33:41;;;;;;;3.22;3.03;;;2.20;92.70;;;;;;5029353;28;21015;-77
2023/01/22 06:36:08;;;;;;;3.40;3.20;;;2.20;92.60;;;;;;5025493;28;20227;-76
2023/01/22 06:38:38;;;;;;;3.22;3.13;;;2.20;92.90;;;;;;5009931;28;20223;-75
2023/01/22 06:41:05;;;;;;;3.53;3.33;;;2.20;92.90;;;;;;5024109;28;20315;-76
2023/01/22 06:43:32;;;;;;;3.28;3.17;;;2.30;93.10;;;;;;5029553;28;20254;-76
2023/01/22 06:45:59;;;;;;;3.47;3.28;;;2.30;93.60;;;;;;5010994;28;20642;-76
2023/01/22 06:48:26;;;;;;;2.97;2.88;;;2.20;93.70;;;;;;5028627;28;20326;-76
2023/01/22 06:51:00;;;;;;;2.88;2.67;;;2.30;93.40;;;;;;5010834;28;20227;-76
2023/01/22 06:53:28;;;;;;;3.15;3.05;;;2.30;93.30;;;;;;5025326;28;20199;-76
2023/01/22 06:55:58;;;;;;;3.28;3.17;;;2.40;93.10;;;;;;5010969;28;20219;-76
2023/01/22 06:58:25;;;;;;;3.10;2.92;;;2.40;93.10;;;;;;5027846;28;20298;-76
2023/01/22 07:00:53;;;;;;;3.33;3.13;;;2.40;92.90;;;;;;5028860;28;20306;-76
2023/01/22 07:03:20;;;;;;;3.45;3.35;;;2.40;93.10;;;;;;5028326;28;20291;-77
2023/01/22 07:05:47;;;;;;;3.22;3.13;;;2.50;93.00;;;;;;5029222;28;20242;-77
2023/01/22 07:08:15;;;;;;;3.90;3.70;;;2.50;92.90;;;;;;5010386;28;20577;-76
2023/01/22 07:10:43;;;;;;;3.38;3.17;;;2.50;92.70;;;;;;5026985;28;20219;-75
2023/01/22 07:13:14;;;;;;;3.70;3.50;;;2.50;92.50;;;;;;5022280;28;20302;-76
2023/01/22 07:15:42;;;;;;;3.92;3.70;;;2.50;92.40;;;;;;5028449;28;20233;-75
2023/01/22 07:18:13;;;;;;;4.00;3.80;;;2.60;92.40;;;;;;5026604;28;20223;-75
2023/01/22 07:20:40;;;;;;;4.85;4.45;;;2.50;93.40;;;;;;5024856;28;20223;-76
2023/01/22 07:23:08;;;;;;;4.68;4.38;;;2.50;93.80;;;;;;5010274;28;20214;-76
2023/01/22 07:25:35;;;;;;;3.92;3.72;;;2.50;94.00;;;;;;5026044;28;20227;-76
2023/01/22 07:28:03;;;;;;;4.05;3.85;;;2.60;94.30;;;;;;5010059;28;20216;-76
2023/01/22 07:30:32;;;;;;;4.68;4.38;;;2.50;94.50;;;;;;5027838;28;20351;-76
2023/01/22 07:33:00;;;;;;;4.28;3.97;;;2.60;94.70;;;;;;5026742;28;20715;-76
2023/01/22 07:35:28;;;;;;;3.85;3.65;;;2.60;94.90;;;;;;5027057;28;20302;-76
2023/01/22 07:37:57;;;;;;;3.90;3.70;;;2.60;94.70;;;;;;5031041;28;20297;-75
2023/01/22 07:40:25;;;;;;;4.03;3.78;;;2.60;94.10;;;;;;5024741;28;20644;-75
2023/01/22 07:42:53;;;;;;;3.80;3.60;;;2.60;93.40;;;;;;5029825;28;20195;-77
2023/01/22 07:45:20;;;;;;;3.60;3.40;;;2.60;94.30;;;;;;5027256;28;20748;-75
2023/01/22 07:47:55;;;;;;;3.63;3.42;;;2.60;94.70;;;;;;5024145;28;20223;-75
2023/01/22 07:50:22;;;;;;;3.70;3.50;;;2.60;95.00;;;;;;5023635;28;20274;-76
2023/01/22 07:52:49;;;;;;;4.00;3.60;;;2.70;94.70;;;;;;5029303;28;20269;-76
2023/01/22 07:55:17;;;;;;;3.70;3.50;;;2.70;94.40;;;;;;5023060;28;20294;-77
2023/01/22 07:57:44;;;;;;;3.83;3.55;;;2.70;94.50;;;;;;5023769;28;20266;-77
2023/01/22 08:00:14;;;;;;;3.45;3.25;;;2.70;93.40;;;;;;5023418;28;20295;-77
2023/01/22 08:02:42;;;;;;;3.75;3.55;;;2.70;94.50;;;;;;5026630;28;20212;-77
2023/01/22 08:05:14;;;;;;;3.33;3.13;;;2.60;94.50;;;;;;5006895;28;20698;-76
2023/01/22 08:07:41;;;;;;;3.65;3.40;;;2.70;94.70;;;;;;5010484;28;20224;-77
2023/01/22 08:10:09;;;;;;;3.70;3.50;;;2.70;94.20;;;;;;5027261;28;20296;-75
2023/01/22 08:12:40;;;;;;;3.65;3.45;;;2.70;94.10;;;;;;5027983;28;20235;-76
2023/01/22 08:15:08;;;;;;;4.18;3.97;;;2.70;94.00;;;;;;5023168;28;20716;-75
2023/01/22 08:17:35;;;;;;;3.65;3.40;;;2.80;94.40;;;;;;5020913;28;20306;-76
2023/01/22 08:20:02;;;;;;;3.17;2.97;;;2.90;94.70;;;;;;5007642;28;20322;-75
2023/01/22 08:22:30;;;;;;;3.65;3.35;;;2.90;94.60;;;;;;5028377;28;20882;-75
2023/01/22 08:24:57;;;;;;;3.80;3.60;;;3.00;94.30;;;;;;4991703;28;20261;-75
2023/01/22 08:27:24;;;;;;;4.47;4.18;;;3.10;94.60;;;;;;5023208;28;20259;-76
2023/01/22 08:29:51;;;;;;;4.35;4.05;;;3.20;94.70;;;;;;5027021;28;20309;-76
2023/01/22 08:32:19;;;;;;;5.15;4.78;;;3.40;94.60;;;;;;5022171;28;20287;-75
2023/01/22 08:34:46;;;;;;;4.93;4.60;;;3.60;94.20;;;;;;5023128;28;20262;-76
2023/01/22 08:37:13;;;;;;;4.72;4.32;;;3.80;93.30;;;;;;4985201;28;1195369;-76
2023/01/22 08:39:41;;;;;;;4.20;3.90;;;3.90;93.10;;;;;;5026324;28;20242;-76
2023/01/22 08:42:08;;;;;;;4.97;4.47;;;4.00;92.50;;;;;;5026620;28;20383;-76
2023/01/22 08:44:35;;;;;;;4.93;4.60;;;4.10;93.30;;;;;;5023363;28;20346;-76
2023/01/22 08:47:02;;;;;;;5.22;4.82;;;4.20;93.70;;;;;;5020908;28;20289;-76
2023/01/22 08:49:30;;;;;;;5.65;5.15;;;4.40;94.30;;;;;;5007840;28;20206;-76
2023/01/22 08:51:57;;;;;;;5.43;5.03;;;4.70;93.10;;;;;;5028782;28;20204;-76
2023/01/22 08:54:25;;;;;;;4.80;4.40;;;4.80;92.90;;;;;;5008481;28;20215;-75
2023/01/22 08:56:53;;;;;;;5.32;4.90;;;4.70;93.30;;;;;;5024104;28;20215;-76
2023/01/22 08:59:20;;;;;;;4.90;4.50;;;4.80;93.80;;;;;;5027167;28;20354;-76
2023/01/22 09:01:47;;;;;;;5.22;4.72;;;5.40;94.00;;;;;;5023054;28;20685;-77
2023/01/22 09:04:14;;;;;;;5.50;5.00;;;6.10;93.40;;;;;;5026840;28;20306;-77
2023/01/22 09:06:41;;;;;;;4.97;4.60;;;6.30;92.90;;;;;;5024655;28;20660;-75
2023/01/22 09:09:08;;;;;;;4.88;4.53;;;6.30;92.00;;;;;;5026259;28;20617;-75
2023/01/22 09:11:35;;;;;;;4.20;3.90;;;6.50;92.00;;;;;;5027580;28;20315;-76
2023/01/22 09:14:07;;;;;;;4.13;3.83;;;6.70;91.50;;;;;;5007382;28;20282;-76
2023/01/22 09:16:35;;;;;;;3.92;3.58;;;6.40;90.90;;;;;;5028836;28;20242;-76
2023/01/22 09:19:02;;;;;;;4.50;4.15;;;6.30;91.40;;;;;;5023272;28;20261;-76
2023/01/22 09:21:29;;;;;;;3.67;3.47;;;6.40;91.50;;;;;;5026522;28;20293;-76
2023/01/22 09:23:56;;;;;;;5.38;4.35;;;6.50;91.50;;;;;;5025408;28;20269;-76
2023/01/22 09:26:23;;;;;;;4.05;3.83;;;6.70;91.30;;;;;;5007303;28;20319;-76
2023/01/22 09:28:50;;;;;;;4.47;4.07;;;6.90;90.90;;;;;;5024369;28;20196;-76
2023/01/22 09:31:19;;;;;;;4.55;4.15;;;7.00;90.10;;;;;;5024872;28;20303;-76
2023/01/22 09:33:46;;;;;;;3.20;3.00;;;6.90;90.00;;;;;;5028011;28;20203;-76
2023/01/22 09:36:15;;;;;;;3.63;3.42;;;7.40;89.20;;;;;;5010142;28;20306;-76
2023/01/22 09:38:42;;;;;;;3.33;3.13;;;7.90;87.10;;;;;;5010592;28;20548;-75
2023/01/22 09:41:18;;;;;;;3.30;3.10;;;10.20;80.10;;;;;;5025419;28;20644;-76
2023/01/22 09:43:51;;;;;;;3.28;3.08;;;13.10;70.20;;;;;;5022805;28;20231;-76
2023/01/22 09:46:25;;;;;;;3.20;3.00;;;14.80;62.70;;;;;;5025089;28;20259;-76
2023/01/22 09:48:56;;;;;;;2.50;2.40;;;15.70;58.70;;;;;;5026473;28;20227;-76
2023/01/22 09:51:24;;;;;;;3.78;2.60;;;16.20;57.20;;;;;;5007108;28;20740;-76
2023/01/22 09:53:57;;;;;;;2.70;2.60;;;15.70;56.30;;;;;;5012027;28;20234;-76
2023/01/22 09:56:30;;;;;;;2.50;2.40;;;14.90;56.60;;;;;;5009205;28;20348;-76
2023/01/22 09:59:00;;;;;;;2.63;2.53;;;14.10;59.90;;;;;;5012174;28;20283;-76
2023/01/22 10:01:29;;;;;;;2.70;2.50;;;12.50;59.90;;;;;;5030436;28;20309;-76
2023/01/22 10:04:01;;;;;;;2.80;2.63;;;11.20;63.30;;;;;;5028849;28;20227;-75
2023/01/22 10:06:30;;;;;;;2.90;2.70;;;9.70;64.50;;;;;;5028355;28;20234;-75
2023/01/22 10:09:09;;;;;;;3.17;2.97;;;8.70;70.60;;;;;;5028794;28;20196;-76
2023/01/22 10:11:37;;;;;;;3.00;2.80;;;8.40;71.50;;;;;;5025256;28;20254;-76
2023/01/22 10:14:08;;;;;;;3.10;2.90;;;8.60;73.90;;;;;;5011319;28;20279;-76
2023/01/22 10:16:37;;;;;;;2.70;2.50;;;8.80;73.50;;;;;;5012122;28;20681;-76
2023/01/22 10:19:15;;;;;;;2.58;2.47;;;9.20;74.60;;;;;;5030711;28;20242;-75
2023/01/22 10:21:46;;;;;;;2.65;2.55;;;9.60;73.30;;;;;;5029470;28;20294;-76
2023/01/22 10:24:13;;;;;;;2.90;2.70;;;9.90;71.70;;;;;;5027309;28;20223;-76
2023/01/22 10:26:44;;;;;;;3.00;2.80;;;9.80;71.40;;;;;;5029071;28;20664;-76
2023/01/22 10:29:15;;;;;;;3.00;2.80;;;9.60;71.70;;;;;;5027316;28;20258;-76
2023/01/22 10:31:50;;;;;;;2.90;2.70;;;9.50;71.60;;;;;;5029117;28;20254;-76
2023/01/22 10:34:23;;;;;;;2.90;2.80;;;9.20;70.00;;;;;;5029549;28;20195;-76
2023/01/22 10:36:52;;;;;;;3.00;2.80;;;9.10;72.90;;;;;;5029414;28;20219;-76
2023/01/22 10:39:20;;;;;;;3.03;2.83;;;9.20;71.40;;;;;;5012451;28;20241;-75
2023/01/22 10:41:48;;;;;;;3.40;3.20;;;9.20;71.20;;;;;;5029171;28;20669;-76
2023/01/22 10:44:21;;;;;;;2.97;2.80;;;9.30;71.80;;;;;;5027546;28;20299;-76
2023/01/22 10:46:50;;;;;;;3.00;2.80;;;9.70;72.20;;;;;;5011249;28;20287;-76
2023/01/22 10:49:19;;;;;;;2.97;2.78;;;9.70;70.10;;;;;;5026640;28;20277;-76
2023/01/22 10:51:53;;;;;;;3.00;2.80;;;9.50;69.80;;;;;;5012506;28;20196;-76
2023/01/22 10:54:23;;;;;;;2.80;2.60;;;9.70;71.90;;;;;;5010693;28;20291;-76
2023/01/22 10:56:53;;;;;;;2.95;2.75;;;9.80;70.90;;;;;;5028998;28;20215;-76
2023/01/22 10:59:23;;;;;;;2.97;2.78;;;9.80;70.30;;;;;;5011135;28;20868;-76
2023/01/22 11:01:57;;;;;;;3.10;2.80;;;10.10;70.70;;;;;;5011877;28;20218;-76
2023/01/22 11:04:28;;;;;;;3.03;2.83;;;10.10;67.80;;;;;;5011315;28;20198;-76
2023/01/22 11:06:59;;;;;;;3.00;2.80;;;9.70;69.80;;;;;;5026272;28;20307;-75
2023/01/22 11:09:32;;;;;;;2.72;2.63;;;9.50;70.30;;;;;;5029348;28;20286;-75
2023/01/22 11:12:08;;;;;;;3.10;2.90;;;9.20;69.80;;;;;;5008609;28;20544;-77
2023/01/22 11:14:37;;;;;;;2.85;2.65;;;9.10;69.90;;;;;;5025040;28;20247;-74
2023/01/22 11:17:26;;;;;;;2.95;2.75;;;9.30;70.10;;;;;;5027458;28;20223;-75
2023/01/22 11:19:59;;;;;;;2.40;2.20;;;9.40;69.50;;;;;;5027682;28;20729;-77
2023/01/22 11:22:32;;;;;;;2.90;2.75;;;9.60;70.60;;;;;;5025282;28;20265;-76
2023/01/22 11:24:59;;;;;;;3.00;2.80;;;9.90;69.90;;;;;;5028667;28;20249;-76
2023/01/22 11:27:49;;;;;;;3.05;2.78;;;10.20;69.90;;;;;;5028446;28;20772;-77
2023/01/22 11:30:54;;;;;;;3.03;2.83;;;10.50;68.20;;;;;;5016561;28;20303;-76
2023/01/22 11:33:35;;;;;;;2.67;2.47;;;10.60;66.60;;;;;;4992424;28;20203;-74
2023/01/22 11:36:07;;;;;;;3.30;3.00;;;10.30;68.10;;;;;;5027150;28;20215;-75
2023/01/22 11:38:43;;;;;;;3.00;2.80;;;9.80;69.70;;;;;;5027065;28;20235;-75
2023/01/22 11:41:46;;;;;;;2.90;2.70;;;9.30;70.20;;;;;;4996060;28;20215;-75
2023/01/22 11:44:50;;;;;;;2.35;2.25;;;9.10;73.10;;;;;;5025666;28;20187;-76
2023/01/22 11:47:30;;;;;;;2.90;2.70;;;8.70;70.00;;;;;;5029857;28;20265;-76
2023/01/22 11:50:12;;;;;;;2.65;2.50;;;8.10;71.30;;;;;;5025192;28;20310;-75
2023/01/22 11:52:49;;;;;;;3.30;3.10;;;7.90;72.90;;;;;;5024399;28;20235;-74
2023/01/22 11:55:29;;;;;;;3.00;2.80;;;7.80;72.80;;;;;;5022896;28;20261;-74
2023/01/22 11:58:07;;;;;;;2.70;2.60;;;7.60;72.70;;;;;;5029264;28;20251;-75
2023/01/22 12:00:43;;;;;;;3.17;2.95;;;7.50;74.60;;;;;;5022941;28;20246;-75
2023/01/22 12:03:48;;;;;;;3.30;3.10;;;7.30;76.20;;;;;;5030372;28;20200;-75
2023/01/22 12:06:53;;;;;;;3.08;2.88;;;7.30;76.70;;;;;;5024044;28;20235;-75
2023/01/22 12:09:28;;;;;;;3.47;3.28;;;7.30;77.00;;;;;;5029376;28;20302;-75
2023/01/22 12:12:22;;;;;;;3.20;3.00;;;7.30;77.50;;;;;;5028407;28;20685;-75
2023/01/22 12:15:01;;;;;;;3.05;2.85;;;7.30;77.40;;;;;;5025837;28;20304;-75
2023/01/22 12:17:42;;;;;;;2.60;2.45;;;7.30;76.00;;;;;;5013789;28;20294;-75
2023/01/22 12:20:26;;;;;;;2.45;2.25;;;7.30;76.40;;;;;;5026996;28;20330;-75
2023/01/22 12:22:58;;;;;;;3.28;3.08;;;7.40;75.70;;;;;;5007874;28;20210;-75
2023/01/22 12:25:36;;;;;;;3.10;2.90;;;7.50;76.90;;;;;;5027423;28;20281;-75
2023/01/22 12:28:13;;;;;;;3.10;2.90;;;7.50;76.50;;;;;;5022236;28;20298;-76
2023/01/22 12:30:50;;;;;;;2.97;2.85;;;7.30;75.60;;;;;;5027947;28;20277;-75
2023/01/22 12:33:22;;;;;;;3.13;2.92;;;7.20;76.50;;;;;;5033259;28;20191;-75
2023/01/22 12:35:52;;;;;;;2.83;2.70;;;7.00;76.80;;;;;;5024423;28;20299;-75
2023/01/22 12:38:48;;;;;;;3.03;2.83;;;7.00;76.80;;;;;;5027197;28;20307;-75
2023/01/22 12:41:35;;;;;;;3.47;3.17;;;7.00;78.10;;;;;;5011391;28;20218;-75
2023/01/22 12:44:10;;;;;;;3.30;3.10;;;7.00;78.10;;;;;;5011474;28;20200;-75
2023/01/22 12:46:49;;;;;;;3.35;3.05;;;7.00;78.00;;;;;;4989643;28;20231;-75
2023/01/22 12:49:17;;;;;;;3.15;2.95;;;7.00;78.50;;;;;;5009919;28;20692;-75
2023/01/22 12:51:46;;;;;;;3.17;2.92;;;7.10;79.10;;;;;;5027335;28;20196;-75
2023/01/22 12:54:22;;;;;;;2.83;2.72;;;7.00;78.90;;;;;;5017190;28;20199;-75
2023/01/22 12:56:52;;;;;;;3.17;2.97;;;7.00;79.10;;;;;;5006598;28;20223;-76
2023/01/22 12:59:31;;;;;;;3.60;3.30;;;7.10;79.10;;;;;;5027770;28;20215;-75
2023/01/22 13:02:00;;;;;;;3.20;3.00;;;7.10;78.50;;;;;;5023603;28;20294;-75
2023/01/22 13:04:31;;;;;;;3.38;3.17;;;7.20;79.10;;;;;;5008304;28;20203;-75
2023/01/22 13:07:20;;;;;;;3.30;3.10;;;7.30;78.10;;;;;;5024249;28;20310;-74
2023/01/22 13:09:47;;;;;;;2.95;2.75;;;7.20;77.40;;;;;;5025203;28;20219;-75
2023/01/22 13:12:27;;;;;;;3.25;3.05;;;7.10;76.80;;;;;;5027045;28;20199;-75
2023/01/22 13:14:56;;;;;;;3.30;3.10;;;7.00;77.90;;;;;;5026578;28;20306;-75
2023/01/22 13:17:29;;;;;;;3.70;3.40;;;7.00;78.50;;;;;;5031791;28;20211;-75
2023/01/22 13:19:57;;;;;;;3.90;3.60;;;7.00;78.70;;;;;;5022295;28;20223;-75